Time;durP1;ratioP1;P1;durP2;ratioP2;P2;SDS_P1;SDS_P2;PMS_P1;PMS_P2;Temp;Humidity;BMP_temperature;BMP_pressure;BME280_temperature;BME280_humidity;BME280_pressure;Samples;Min_cycle;Max_cycle;Signal;HPM_P1;HPM_P2
2022/06/23 00:00:30;;;;;;;2.63;1.67;;;23.10;56.60;;;;;;4964724;28;90657;-65
2022/06/23 00:02:58;;;;;;;2.75;1.77;;;23.10;56.60;;;;;;4955071;28;90619;-67
2022/06/23 00:05:28;;;;;;;3.75;1.85;;;23.10;56.50;;;;;;4969042;28;88915;-65
2022/06/23 00:07:59;;;;;;;2.08;1.50;;;23.10;56.70;;;;;;4963767;28;89840;-64
2022/06/23 00:10:33;;;;;;;1.75;1.25;;;23.10;56.70;;;;;;4969179;28;88041;-65
2022/06/23 00:12:59;;;;;;;1.85;1.65;;;23.10;56.70;;;;;;4973531;28;91198;-64
2022/06/23 00:15:36;;;;;;;1.98;1.50;;;23.10;56.80;;;;;;4969126;28;87865;-64
2022/06/23 00:18:05;;;;;;;2.40;1.75;;;23.10;56.70;;;;;;4954412;28;89815;-64
2022/06/23 00:20:43;;;;;;;2.53;1.55;;;23.10;56.60;;;;;;4968702;28;87589;-65
2022/06/23 00:23:17;;;;;;;1.70;1.42;;;23.10;56.70;;;;;;4968431;28;87788;-66
2022/06/23 00:25:48;;;;;;;2.65;1.63;;;23.10;56.80;;;;;;4968669;28;88168;-68
2022/06/23 00:28:37;;;;;;;1.52;1.42;;;23.10;56.70;;;;;;4967074;28;89147;-66
2022/06/23 00:31:06;;;;;;;2.38;1.60;;;23.10;56.80;;;;;;4971028;28;89113;-64
2022/06/23 00:33:50;;;;;;;2.73;1.83;;;23.10;56.60;;;;;;4971164;28;88282;-67
2022/06/23 00:36:41;;;;;;;1.85;1.55;;;23.10;56.70;;;;;;4972816;28;87322;-65
2022/06/23 00:39:40;;;;;;;3.30;1.80;;;23.10;56.80;;;;;;4960783;28;87296;-65
2022/06/23 00:42:21;;;;;;;2.85;2.00;;;23.10;56.80;;;;;;4971454;28;88617;-64
2022/06/23 00:44:52;;;;;;;1.50;1.40;;;23.10;56.80;;;;;;4971240;28;87243;-65
2022/06/23 00:47:27;;;;;;;1.80;1.50;;;23.10;56.80;;;;;;4972665;28;88011;-67
2022/06/23 00:50:10;;;;;;;2.00;1.45;;;23.10;56.90;;;;;;4972663;28;87144;-65
2022/06/23 00:52:52;;;;;;;1.73;1.50;;;23.10;56.80;;;;;;4971628;28;90592;-68
2022/06/23 00:56:09;;;;;;;2.00;1.40;;;23.10;56.70;;;;;;4978085;28;90831;-64
2022/06/23 00:58:56;;;;;;;2.10;1.55;;;23.10;56.80;;;;;;4953531;28;89274;-68
2022/06/23 01:01:44;;;;;;;1.98;1.67;;;23.10;56.70;;;;;;4972003;28;87536;-67
2022/06/23 01:04:28;;;;;;;2.08;1.48;;;23.10;56.60;;;;;;4971639;28;88155;-64
2022/06/23 01:07:22;;;;;;;1.77;1.65;;;23.00;56.50;;;;;;4970883;28;89644;-65
2022/06/23 01:10:05;;;;;;;2.65;1.65;;;23.00;56.50;;;;;;4972236;28;87639;-66
2022/06/23 01:12:43;;;;;;;1.92;1.67;;;23.10;56.60;;;;;;4971678;28;88413;-64
2022/06/23 01:15:26;;;;;;;2.10;1.83;;;23.10;56.50;;;;;;4971807;28;88077;-64
2022/06/23 01:18:21;;;;;;;1.73;1.42;;;23.10;56.50;;;;;;4968532;28;89550;-65
2022/06/23 01:21:22;;;;;;;2.60;1.70;;;23.00;56.50;;;;;;4965158;28;87070;-65
2022/06/23 01:24:09;;;;;;;2.00;1.77;;;23.00;56.50;;;;;;4952987;28;88382;-65
2022/06/23 01:27:02;;;;;;;2.97;1.60;;;23.10;56.40;;;;;;4969000;28;89925;-65
2022/06/23 01:29:50;;;;;;;1.95;1.50;;;23.00;56.50;;;;;;4961978;28;92450;-68
2022/06/23 01:32:19;;;;;;;2.45;1.63;;;23.00;56.30;;;;;;4970097;28;88233;-64
2022/06/23 01:34:48;;;;;;;1.60;1.50;;;23.10;56.50;;;;;;4970964;28;87447;-65
2022/06/23 01:37:52;;;;;;;1.60;1.40;;;23.00;56.30;;;;;;4970551;28;88022;-66
2022/06/23 01:40:26;;;;;;;2.17;1.50;;;23.00;56.40;;;;;;4956230;28;88192;-64
2022/06/23 01:42:57;;;;;;;1.75;1.50;;;23.00;56.50;;;;;;4968168;28;87444;-66
2022/06/23 01:45:51;;;;;;;1.73;1.63;;;23.00;56.30;;;;;;4971662;28;86734;-64
2022/06/23 01:51:30;;;;;;;1.38;1.20;;;23.00;56.50;;;;;;4944132;28;88872;-65
2022/06/23 01:54:19;;;;;;;2.17;1.50;;;23.00;56.40;;;;;;4970161;28;88871;-68
2022/06/23 01:57:11;;;;;;;1.48;1.38;;;23.00;56.60;;;;;;4971049;28;87423;-64
2022/06/23 01:59:36;;;;;;;1.23;1.15;;;23.00;56.80;;;;;;4970994;28;88051;-67
2022/06/23 02:02:11;;;;;;;1.80;1.35;;;23.00;56.60;;;;;;4970278;28;87950;-67
2022/06/23 02:05:24;;;;;;;2.00;1.70;;;23.00;56.60;;;;;;4970094;28;88079;-65
2022/06/23 02:07:57;;;;;;;3.10;1.77;;;23.00;56.50;;;;;;4952816;28;89850;-65
2022/06/23 02:10:28;;;;;;;3.03;1.50;;;23.00;56.70;;;;;;4971168;28;88886;-65
2022/06/23 02:13:04;;;;;;;1.98;1.50;;;23.00;57.30;;;;;;4971506;28;87156;-66
2022/06/23 02:16:03;;;;;;;3.05;1.50;;;23.00;56.50;;;;;;4971077;28;87842;-66
2022/06/23 02:18:35;;;;;;;2.20;1.50;;;23.00;56.50;;;;;;4969259;28;87476;-65
2022/06/23 02:21:23;;;;;;;3.10;1.90;;;23.00;57.10;;;;;;4969502;28;89551;-66
2022/06/23 02:23:59;;;;;;;1.20;1.10;;;23.00;56.30;;;;;;4954419;28;91295;-64
2022/06/23 02:26:33;;;;;;;1.50;1.40;;;23.00;56.40;;;;;;4970555;28;88031;-65
2022/06/23 02:29:04;;;;;;;1.80;1.45;;;23.00;56.50;;;;;;4970258;28;88234;-66
2022/06/23 02:32:02;;;;;;;1.70;1.60;;;23.00;56.50;;;;;;4970387;28;88519;-65
2022/06/23 02:34:31;;;;;;;2.80;1.65;;;23.00;56.50;;;;;;4968464;28;90688;-68
2022/06/23 02:37:27;;;;;;;1.40;1.30;;;23.00;56.30;;;;;;4952817;28;87542;-64
2022/06/23 02:39:58;;;;;;;1.92;1.60;;;23.00;56.40;;;;;;4960048;28;89986;-67
2022/06/23 02:42:32;;;;;;;2.72;1.70;;;23.00;56.50;;;;;;4969946;28;91630;-68
2022/06/23 02:45:29;;;;;;;1.90;1.42;;;23.00;56.30;;;;;;4950673;28;91880;-65
2022/06/23 02:48:20;;;;;;;1.48;1.30;;;23.00;56.30;;;;;;4969127;28;89140;-64
2022/06/23 02:51:30;;;;;;;1.50;1.40;;;23.00;56.30;;;;;;4952720;28;88674;-64
2022/06/23 02:54:03;;;;;;;1.90;1.50;;;23.00;56.30;;;;;;4917237;28;91731;-65
2022/06/23 02:56:49;;;;;;;2.58;1.48;;;23.00;56.30;;;;;;4948061;28;90194;-65
2022/06/23 02:59:29;;;;;;;1.38;1.25;;;23.00;56.30;;;;;;4955571;28;88070;-69
2022/06/23 03:02:06;;;;;;;3.28;1.85;;;23.00;56.30;;;;;;4953626;28;90021;-65
2022/06/23 03:04:41;;;;;;;1.45;1.35;;;23.00;57.00;;;;;;4969843;28;87426;-68
2022/06/23 03:07:11;;;;;;;1.70;1.50;;;23.00;56.40;;;;;;4971179;28;87412;-65
2022/06/23 03:09:42;;;;;;;;;;;23.00;56.30;;;;;;4954155;28;87433;-64
2022/06/23 03:12:23;;;;;;;1.80;1.60;;;23.00;56.40;;;;;;4969860;28;87241;-67
2022/06/23 03:14:56;;;;;;;1.50;1.40;;;23.00;56.30;;;;;;4968051;28;92508;-68
2022/06/23 03:17:27;;;;;;;1.77;1.27;;;23.00;56.20;;;;;;4959220;28;91953;-64
2022/06/23 03:20:31;;;;;;;1.50;1.33;;;23.00;56.30;;;;;;4970419;28;87813;-65
2022/06/23 03:23:04;;;;;;;1.80;1.70;;;23.00;56.40;;;;;;4969709;28;87558;-67
2022/06/23 03:25:55;;;;;;;1.55;1.45;;;23.00;56.40;;;;;;4969621;28;88638;-66
2022/06/23 03:28:34;;;;;;;2.40;1.55;;;23.00;56.40;;;;;;4969127;28;87664;-67
2022/06/23 03:31:22;;;;;;;2.03;1.38;;;23.00;56.30;;;;;;4968884;28;87203;-66
2022/06/23 03:34:15;;;;;;;1.50;1.40;;;23.00;56.20;;;;;;4969066;28;87003;-64
2022/06/23 03:36:47;;;;;;;3.83;1.20;;;23.00;56.20;;;;;;4960884;28;88035;-64
2022/06/23 03:42:12;;;;;;;1.73;1.60;;;23.00;56.10;;;;;;4969419;28;88325;-68
2022/06/23 03:45:08;;;;;;;1.70;1.58;;;23.00;56.10;;;;;;4968991;28;88174;-64
2022/06/23 03:48:05;;;;;;;2.25;1.98;;;23.00;56.50;;;;;;4969641;28;88046;-65
2022/06/23 03:50:58;;;;;;;2.33;2.10;;;23.00;56.70;;;;;;4969896;28;87315;-67
2022/06/23 03:53:32;;;;;;;2.70;2.42;;;23.00;56.80;;;;;;4970242;28;86978;-64
2022/06/23 03:56:10;;;;;;;3.00;2.10;;;23.00;56.90;;;;;;4969471;28;88387;-63
2022/06/23 03:58:45;;;;;;;2.33;1.80;;;23.00;56.60;;;;;;4968841;28;88227;-68
2022/06/23 04:01:17;;;;;;;3.28;2.05;;;23.00;55.90;;;;;;4969380;28;87307;-64
2022/06/23 04:04:13;;;;;;;3.15;2.22;;;23.00;56.30;;;;;;4971920;28;87926;-66
2022/06/23 04:06:47;;;;;;;2.28;2.05;;;23.00;56.80;;;;;;4973199;28;87698;-64
2022/06/23 04:09:26;;;;;;;2.00;1.80;;;23.00;56.80;;;;;;4971826;28;87985;-66
2022/06/23 04:12:14;;;;;;;2.15;2.00;;;23.00;56.70;;;;;;4972866;28;90109;-64
2022/06/23 04:15:02;;;;;;;3.03;2.13;;;23.00;56.80;;;;;;4955344;28;88190;-63
2022/06/23 04:17:41;;;;;;;3.22;2.03;;;23.00;56.90;;;;;;4972502;28;88106;-63
2022/06/23 04:20:14;;;;;;;4.43;2.10;;;23.00;56.60;;;;;;4971804;28;89415;-63
2022/06/23 04:23:15;;;;;;;2.50;1.60;;;23.00;56.60;;;;;;4972270;28;90114;-67
2022/06/23 04:25:47;;;;;;;1.90;1.70;;;23.00;56.80;;;;;;4970731;28;88380;-63
2022/06/23 04:28:30;;;;;;;5.15;2.20;;;23.00;57.00;;;;;;4971448;28;86938;-64
2022/06/23 04:30:57;;;;;;;3.53;2.15;;;23.00;56.70;;;;;;4953729;28;89446;-67
2022/06/23 04:33:25;;;;;;;4.32;2.10;;;23.00;56.70;;;;;;4972020;28;87977;-63
2022/06/23 04:35:55;;;;;;;3.95;2.00;;;23.00;56.70;;;;;;4963639;28;88845;-67
2022/06/23 04:38:36;;;;;;;2.10;1.90;;;23.00;56.80;;;;;;4972066;28;87774;-67
2022/06/23 04:41:14;;;;;;;4.00;1.83;;;23.00;56.90;;;;;;4972346;28;88756;-63
2022/06/23 04:43:47;;;;;;;1.95;1.83;;;23.00;56.80;;;;;;4953634;28;89371;-63
2022/06/23 04:46:20;;;;;;;1.92;1.73;;;23.00;56.70;;;;;;4972142;28;88177;-66
2022/06/23 04:48:55;;;;;;;2.72;1.77;;;23.00;56.80;;;;;;4972507;28;87145;-66
2022/06/23 04:51:30;;;;;;;3.08;1.83;;;23.00;55.10;;;;;;4971912;28;88063;-65
2022/06/23 04:54:18;;;;;;;2.35;1.85;;;23.00;55.00;;;;;;4971078;28;87986;-63
2022/06/23 04:56:46;;;;;;;1.60;1.48;;;23.00;54.60;;;;;;4972108;28;86836;-63
2022/06/23 04:59:30;;;;;;;3.72;1.70;;;23.00;54.60;;;;;;4971730;28;87790;-67
2022/06/23 05:02:00;;;;;;;2.40;1.90;;;23.00;54.90;;;;;;4953612;28;90924;-64
2022/06/23 05:04:32;;;;;;;1.77;1.67;;;23.00;55.00;;;;;;4954772;28;89694;-64
2022/06/23 05:07:00;;;;;;;3.70;1.55;;;23.10;55.10;;;;;;4971850;28;87588;-66
2022/06/23 05:09:35;;;;;;;3.17;1.80;;;23.00;55.30;;;;;;4953666;28;90271;-63
2022/06/23 05:12:17;;;;;;;1.88;1.50;;;23.00;55.20;;;;;;4971038;28;88021;-65
2022/06/23 05:14:54;;;;;;;3.15;1.70;;;23.00;55.30;;;;;;4969936;28;90234;-67
2022/06/23 05:17:24;;;;;;;2.47;1.77;;;23.00;55.20;;;;;;4961321;28;88049;-64
2022/06/23 05:19:57;;;;;;;2.42;1.60;;;23.00;55.50;;;;;;4971076;28;87281;-67
2022/06/23 05:22:38;;;;;;;2.22;1.83;;;23.10;55.50;;;;;;4981853;28;90995;-64
2022/06/23 05:25:16;;;;;;;2.63;1.65;;;23.10;55.50;;;;;;4971724;28;88258;-65
2022/06/23 05:27:45;;;;;;;2.10;1.65;;;23.10;55.50;;;;;;4971242;28;88066;-64
2022/06/23 05:30:19;;;;;;;2.97;1.92;;;23.10;55.50;;;;;;4971659;28;87531;-65
2022/06/23 05:32:52;;;;;;;2.97;2.00;;;23.10;55.60;;;;;;4970466;28;88282;-65
2022/06/23 05:36:10;;;;;;;3.97;1.80;;;23.10;55.60;;;;;;4970973;28;88066;-68
2022/06/23 05:38:39;;;;;;;2.57;1.80;;;23.10;55.70;;;;;;4952965;28;87682;-65
2022/06/23 05:41:36;;;;;;;1.70;1.50;;;23.10;55.60;;;;;;4952674;28;90873;-65
2022/06/23 05:44:09;;;;;;;1.73;1.50;;;23.10;55.60;;;;;;4969731;28;91907;-66
2022/06/23 05:46:40;;;;;;;2.33;1.52;;;23.10;55.80;;;;;;4971431;28;87794;-64
2022/06/23 05:49:15;;;;;;;1.95;1.80;;;23.20;55.70;;;;;;4962403;28;87927;-64
2022/06/23 05:51:52;;;;;;;2.97;2.20;;;23.10;55.60;;;;;;4970934;28;86946;-68
2022/06/23 05:54:21;;;;;;;9.27;2.90;;;23.20;55.80;;;;;;4969622;28;89073;-66
2022/06/23 05:57:11;;;;;;;6.38;3.25;;;23.20;56.20;;;;;;4970963;28;89613;-64
2022/06/23 05:59:48;;;;;;;8.57;3.58;;;23.20;57.20;;;;;;4970779;28;87981;-66
2022/06/23 06:02:33;;;;;;;6.97;4.00;;;23.20;58.00;;;;;;4969995;28;86982;-64
2022/06/23 06:05:00;;;;;;;7.97;3.50;;;23.20;58.50;;;;;;4970286;28;88354;-65
2022/06/23 06:07:34;;;;;;;12.60;4.28;;;23.20;59.20;;;;;;4952299;28;89656;-65
2022/06/23 06:10:04;;;;;;;14.18;4.45;;;23.20;59.80;;;;;;4969251;28;87979;-65
2022/06/23 06:12:37;;;;;;;50.45;12.85;;;23.20;60.20;;;;;;4970519;28;90311;-64
2022/06/23 06:15:29;;;;;;;63.65;12.82;;;23.20;61.70;;;;;;4970315;28;88346;-68
2022/06/23 06:18:32;;;;;;;61.20;12.30;;;23.20;62.00;;;;;;4966948;28;89082;-65
2022/06/23 06:21:02;;;;;;;37.42;9.02;;;23.20;62.80;;;;;;4951110;28;89818;-64
2022/06/23 06:23:33;;;;;;;19.05;7.05;;;23.20;63.50;;;;;;4969809;28;87851;-64
2022/06/23 06:25:59;;;;;;;24.00;7.03;;;23.30;64.80;;;;;;4969481;28;87668;-68
2022/06/23 06:28:32;;;;;;;14.15;5.97;;;23.30;65.90;;;;;;4969378;28;87140;-65
2022/06/23 06:31:23;;;;;;;14.95;5.50;;;23.30;66.10;;;;;;4968488;28;87698;-66
2022/06/23 06:34:04;;;;;;;18.27;5.57;;;23.30;66.40;;;;;;4964299;28;87866;-66
2022/06/23 06:36:38;;;;;;;22.70;6.07;;;23.30;66.90;;;;;;4969198;28;87862;-66
2022/06/23 06:39:32;;;;;;;16.83;6.22;;;23.40;67.70;;;;;;4952963;28;91877;-68
2022/06/23 06:44:56;;;;;;;11.57;5.88;;;23.40;68.90;;;;;;4962051;28;88910;-67
2022/06/23 06:47:27;;;;;;;15.60;6.70;;;23.40;67.90;;;;;;4963746;28;89219;-66
2022/06/23 06:49:57;;;;;;;15.02;5.95;;;23.40;68.20;;;;;;4942498;28;91632;-66
2022/06/23 06:52:23;;;;;;;16.92;5.85;;;23.40;68.40;;;;;;4964548;28;88362;-69
2022/06/23 06:55:14;;;;;;;17.10;6.35;;;23.40;68.40;;;;;;4969461;28;87525;-69
2022/06/23 06:57:46;;;;;;;18.88;6.35;;;23.40;68.80;;;;;;4967070;28;88269;-70
2022/06/23 07:00:36;;;;;;;15.40;6.60;;;23.40;69.20;;;;;;4968242;28;88047;-70
2022/06/23 07:03:06;;;;;;;12.75;6.15;;;23.40;69.50;;;;;;4970261;28;87857;-67
2022/06/23 07:05:50;;;;;;;16.98;6.72;;;23.40;69.20;;;;;;4972206;28;86958;-66
2022/06/23 07:08:20;;;;;;;15.27;6.88;;;23.40;69.10;;;;;;4975349;28;88226;-66
2022/06/23 07:10:54;;;;;;;16.05;6.55;;;23.40;69.50;;;;;;4974302;28;87434;-70
2022/06/23 07:13:38;;;;;;;15.32;6.32;;;23.40;69.50;;;;;;4969542;28;88465;-66
2022/06/23 07:16:19;;;;;;;14.77;6.35;;;23.40;68.30;;;;;;4970703;28;88204;-66
2022/06/23 07:19:01;;;;;;;13.45;6.25;;;23.40;68.50;;;;;;4975489;28;88520;-66
2022/06/23 07:21:38;;;;;;;13.98;6.25;;;23.40;67.90;;;;;;4970726;28;88048;-67
2022/06/23 07:24:17;;;;;;;11.85;5.90;;;23.30;67.70;;;;;;4972358;28;87565;-66
2022/06/23 07:26:45;;;;;;;13.85;6.35;;;23.30;67.80;;;;;;4974982;28;87641;-69
2022/06/23 07:29:39;;;;;;;10.70;6.03;;;23.30;67.30;;;;;;4979587;28;88265;-67
2022/06/23 07:32:14;;;;;;;12.50;5.57;;;23.30;67.30;;;;;;4970362;28;87854;-70
2022/06/23 07:34:49;;;;;;;13.05;6.07;;;23.30;67.00;;;;;;4976501;28;87742;-68
2022/06/23 07:37:23;;;;;;;12.05;6.03;;;23.30;66.40;;;;;;4973427;28;87338;-67
2022/06/23 07:40:02;;;;;;;15.57;6.82;;;23.30;65.90;;;;;;4973555;28;89004;-67
2022/06/23 07:42:55;;;;;;;13.15;5.80;;;23.30;66.10;;;;;;4972412;28;91629;-68
2022/06/23 07:45:31;;;;;;;12.30;5.70;;;23.30;65.40;;;;;;4972433;28;87481;-66
2022/06/23 07:47:57;;;;;;;20.58;6.05;;;23.30;65.40;;;;;;4984410;28;87085;-70
2022/06/23 07:50:23;;;;;;;12.85;6.18;;;23.30;65.80;;;;;;4958920;28;88936;-66
2022/06/23 07:52:49;;;;;;;10.25;5.93;;;23.30;65.50;;;;;;4975483;28;87771;-68
2022/06/23 07:55:20;;;;;;;11.27;5.90;;;23.30;65.70;;;;;;4969118;28;87702;-67
2022/06/23 07:57:46;;;;;;;16.77;6.30;;;23.30;65.60;;;;;;4958111;28;90641;-67
2022/06/23 08:00:13;;;;;;;11.05;5.57;;;23.30;65.40;;;;;;4973568;28;88097;-68
2022/06/23 08:02:54;;;;;;;8.98;5.43;;;23.30;65.20;;;;;;4969531;28;87858;-67
2022/06/23 08:05:26;;;;;;;10.90;6.13;;;23.30;65.10;;;;;;4972788;28;89157;-66
2022/06/23 08:07:54;;;;;;;13.77;5.75;;;23.30;65.00;;;;;;4977030;28;88142;-67
2022/06/23 08:10:24;;;;;;;11.93;5.85;;;23.30;65.10;;;;;;4979667;28;88783;-66
2022/06/23 08:12:59;;;;;;;8.95;5.03;;;23.30;65.00;;;;;;4969680;28;88507;-67
2022/06/23 08:18:34;;;;;;;9.88;5.60;;;23.30;65.10;;;;;;4970414;28;88131;-66
2022/06/23 08:21:06;;;;;;;8.88;5.07;;;23.30;64.80;;;;;;4974067;28;88094;-67
2022/06/23 08:23:38;;;;;;;9.75;5.60;;;23.30;64.80;;;;;;4969243;28;86800;-66
2022/06/23 08:26:07;;;;;;;9.05;6.25;;;23.30;64.70;;;;;;4968792;28;87273;-69
2022/06/23 08:28:33;;;;;;;9.10;6.07;;;23.30;64.50;;;;;;4972301;28;87269;-66
2022/06/23 08:31:01;;;;;;;9.63;5.63;;;23.30;64.50;;;;;;4973229;28;89178;-69
2022/06/23 08:33:27;;;;;;;12.40;5.70;;;23.30;64.30;;;;;;4980281;28;88257;-66
2022/06/23 08:35:56;;;;;;;7.60;4.85;;;23.30;64.30;;;;;;4981864;28;87600;-66
2022/06/23 08:38:34;;;;;;;8.67;5.00;;;23.30;64.00;;;;;;4973975;28;87150;-68
2022/06/23 08:41:08;;;;;;;10.63;5.55;;;23.30;64.20;;;;;;4974574;28;87632;-70
2022/06/23 08:43:52;;;;;;;11.15;6.05;;;23.30;63.90;;;;;;4973736;28;88546;-67
2022/06/23 08:46:39;;;;;;;9.10;5.10;;;23.30;63.90;;;;;;4972169;28;87580;-66
2022/06/23 08:49:20;;;;;;;10.32;5.65;;;23.30;63.80;;;;;;4977836;28;87374;-70
2022/06/23 08:52:09;;;;;;;10.25;5.45;;;23.30;63.70;;;;;;4977771;28;87502;-69
2022/06/23 08:55:12;;;;;;;10.23;5.78;;;23.30;63.50;;;;;;4978949;28;88105;-68
2022/06/23 08:57:51;;;;;;;8.77;5.30;;;23.30;63.60;;;;;;4930213;28;88904;-68
2022/06/23 09:00:17;;;;;;;8.33;5.33;;;23.30;63.70;;;;;;4933275;28;89940;-68
2022/06/23 09:02:57;;;;;;;7.22;5.28;;;23.30;63.50;;;;;;4957662;28;88070;-67
2022/06/23 09:05:57;;;;;;;7.57;4.82;;;23.30;63.40;;;;;;4955843;28;87311;-67
2022/06/23 09:08:48;;;;;;;7.85;5.45;;;23.30;63.40;;;;;;4974771;28;87890;-67
2022/06/23 09:11:23;;;;;;;8.90;5.30;;;23.30;63.40;;;;;;4973295;28;87768;-67
2022/06/23 09:14:19;;;;;;;8.25;5.47;;;23.30;63.10;;;;;;4972164;28;89244;-67
2022/06/23 09:17:04;;;;;;;6.30;5.00;;;23.30;63.20;;;;;;4978833;28;87753;-67
2022/06/23 09:19:54;;;;;;;9.13;5.35;;;23.30;63.10;;;;;;4971879;28;87623;-69
2022/06/23 09:22:36;;;;;;;7.60;5.20;;;23.30;63.40;;;;;;4973083;28;88643;-68
2022/06/23 09:25:25;;;;;;;8.63;5.38;;;23.30;63.40;;;;;;4970498;28;89579;-66
2022/06/23 09:28:10;;;;;;;12.50;5.50;;;23.30;63.80;;;;;;4972566;28;91375;-67
2022/06/23 09:30:59;;;;;;;11.32;5.38;;;23.30;63.80;;;;;;4977159;28;87389;-67
2022/06/23 09:33:45;;;;;;;11.90;5.93;;;23.30;63.50;;;;;;4973859;28;87176;-68
2022/06/23 09:36:16;;;;;;;9.27;5.28;;;23.40;64.40;;;;;;4976154;28;87976;-67
2022/06/23 09:38:45;;;;;;;9.70;5.03;;;23.40;63.90;;;;;;4980397;28;89473;-67
2022/06/23 09:41:19;;;;;;;12.23;5.63;;;23.40;64.00;;;;;;4971236;28;87323;-67
2022/06/23 09:44:11;;;;;;;10.40;5.55;;;23.30;64.00;;;;;;4970702;28;89715;-67
2022/06/23 09:46:54;;;;;;;10.95;5.32;;;23.40;64.20;;;;;;4952953;28;89720;-66
2022/06/23 09:49:33;;;;;;;13.13;5.20;;;23.30;64.30;;;;;;4970890;28;88032;-70
2022/06/23 09:52:11;;;;;;;9.00;5.65;;;23.40;64.50;;;;;;4974125;28;88240;-67
2022/06/23 09:55:04;;;;;;;9.73;5.20;;;23.40;64.50;;;;;;4979423;28;87605;-67
2022/06/23 09:57:44;;;;;;;8.50;4.70;;;23.30;64.20;;;;;;4974434;28;88143;-67
2022/06/23 10:00:18;;;;;;;9.18;5.13;;;23.40;64.40;;;;;;4978353;28;88063;-66
2022/06/23 10:02:58;;;;;;;11.57;5.13;;;23.40;64.30;;;;;;4961306;28;87692;-66
2022/06/23 10:05:56;;;;;;;10.10;5.38;;;23.30;64.10;;;;;;4980857;28;87685;-66
2022/06/23 10:08:49;;;;;;;8.57;5.30;;;23.30;64.30;;;;;;4974306;28;87526;-67
2022/06/23 10:14:23;;;;;;;9.07;5.07;;;23.30;65.00;;;;;;4976505;28;87070;-66
2022/06/23 10:17:06;;;;;;;10.18;5.28;;;23.30;64.80;;;;;;4976455;28;87678;-69
2022/06/23 10:19:50;;;;;;;8.52;5.47;;;23.30;64.50;;;;;;4978690;28;88885;-67
2022/06/23 10:22:28;;;;;;;7.03;5.07;;;23.40;65.00;;;;;;4977637;28;88347;-67
2022/06/23 10:25:15;;;;;;;11.52;5.40;;;23.40;65.10;;;;;;4979130;28;87630;-69
2022/06/23 10:28:02;;;;;;;20.48;6.82;;;23.40;65.50;;;;;;4968337;28;87563;-67
2022/06/23 10:30:51;;;;;;;10.38;5.80;;;23.40;65.30;;;;;;4974696;28;89566;-67
2022/06/23 10:33:30;;;;;;;11.57;5.35;;;23.40;65.00;;;;;;4957846;28;87802;-67
2022/06/23 10:36:35;;;;;;;8.80;5.22;;;23.40;64.80;;;;;;4968802;28;88360;-70
2022/06/23 10:39:19;;;;;;;8.30;5.95;;;23.40;64.80;;;;;;4927146;28;88080;-65
2022/06/23 10:42:05;;;;;;;9.35;5.35;;;23.40;64.80;;;;;;4930140;28;88074;-69
2022/06/23 10:44:59;;;;;;;12.10;5.18;;;23.40;65.00;;;;;;4959962;28;88156;-70
2022/06/23 10:47:40;;;;;;;10.15;4.57;;;23.40;65.10;;;;;;4972841;28;88356;-68
2022/06/23 10:50:26;;;;;;;10.88;5.38;;;23.40;64.90;;;;;;4975108;28;87709;-67
2022/06/23 10:53:16;;;;;;;9.13;5.47;;;23.40;65.00;;;;;;4976515;28;88130;-67
2022/06/23 10:55:47;;;;;;;7.18;4.47;;;23.40;65.20;;;;;;4972349;28;87566;-67
2022/06/23 10:58:18;;;;;;;11.90;5.47;;;23.30;65.00;;;;;;4973182;28;88016;-67
2022/06/23 11:00:59;;;;;;;8.93;5.13;;;23.30;64.90;;;;;;4977479;28;87810;-70
2022/06/23 11:04:07;;;;;;;14.02;5.40;;;23.30;64.80;;;;;;4955704;28;88477;-68
2022/06/23 11:07:11;;;;;;;10.30;4.43;;;23.30;65.00;;;;;;4963558;28;89410;-67
2022/06/23 11:10:03;;;;;;;8.18;5.03;;;23.30;64.80;;;;;;4970701;28;87991;-70
2022/06/23 11:12:46;;;;;;;9.35;4.78;;;23.40;64.90;;;;;;4959148;28;88357;-69
2022/06/23 11:15:12;;;;;;;11.95;5.00;;;23.40;65.00;;;;;;4974637;28;88224;-67
2022/06/23 11:17:56;;;;;;;8.85;5.07;;;23.40;65.00;;;;;;4977426;28;88706;-70
2022/06/23 11:20:35;;;;;;;6.93;4.70;;;23.40;64.90;;;;;;4971163;28;87018;-66
2022/06/23 11:23:31;;;;;;;9.85;4.85;;;23.40;64.90;;;;;;4959828;28;89793;-66
2022/06/23 11:26:03;;;;;;;7.43;4.95;;;23.40;64.90;;;;;;4978747;28;88746;-69
2022/06/23 11:28:59;;;;;;;9.57;5.07;;;23.40;65.00;;;;;;4971652;28;87963;-67
2022/06/23 11:31:31;;;;;;;10.05;4.55;;;23.40;64.90;;;;;;4970637;28;87505;-69
2022/06/23 11:34:18;;;;;;;7.47;4.60;;;23.40;64.90;;;;;;4975024;28;89515;-66
2022/06/23 11:37:02;;;;;;;7.07;4.75;;;23.40;64.80;;;;;;4971850;28;88076;-67
2022/06/23 11:39:42;;;;;;;6.85;4.68;;;23.40;64.70;;;;;;4973454;28;87729;-76
2022/06/23 11:42:33;;;;;;;9.93;4.90;;;23.40;64.70;;;;;;4968141;28;89486;-71
2022/06/23 11:45:05;;;;;;;12.63;5.00;;;23.40;64.70;;;;;;4978373;28;88140;-70
2022/06/23 11:47:36;;;;;;;10.10;5.00;;;23.40;64.90;;;;;;4970658;28;88097;-70
2022/06/23 11:50:10;;;;;;;20.20;6.13;;;23.40;64.90;;;;;;4973603;28;87484;-69
2022/06/23 11:53:11;;;;;;;10.65;5.13;;;23.50;65.00;;;;;;4968238;28;88583;-69
2022/06/23 11:56:05;;;;;;;12.07;5.00;;;23.50;64.50;;;;;;4951128;28;89614;-70
2022/06/23 11:58:44;;;;;;;10.68;4.97;;;23.50;64.70;;;;;;4966669;28;88233;-73
2022/06/23 12:01:15;;;;;;;18.67;6.03;;;23.40;64.50;;;;;;4958220;28;91345;-68
2022/06/23 12:04:03;;;;;;;9.85;5.53;;;23.40;65.00;;;;;;4968781;28;88116;-70
2022/06/23 12:06:53;;;;;;;13.65;5.13;;;23.40;65.30;;;;;;4965153;28;88397;-68
2022/06/23 12:09:47;;;;;;;7.90;4.28;;;23.40;64.50;;;;;;4969824;28;89849;-67
2022/06/23 12:12:13;;;;;;;6.65;4.97;;;23.40;64.30;;;;;;4972311;28;88817;-67
2022/06/23 12:14:39;;;;;;;10.73;5.13;;;23.40;64.80;;;;;;4973952;28;87682;-68
2022/06/23 12:17:29;;;;;;;9.55;5.75;;;23.40;64.90;;;;;;4962619;28;89068;-67
2022/06/23 12:20:38;;;;;;;9.18;4.53;;;23.40;65.10;;;;;;4966917;28;87974;-67
2022/06/23 12:23:13;;;;;;;10.30;4.75;;;23.40;64.50;;;;;;4955166;28;87682;-67
2022/06/23 12:31:53;;;;;;;7.18;4.43;;;23.40;64.60;;;;;;1459902;26;88748;-67
2022/06/23 12:34:50;;;;;;;8.77;4.72;;;23.40;64.80;;;;;;4974199;28;87639;-68
2022/06/23 12:37:53;;;;;;;7.90;4.63;;;23.40;64.70;;;;;;4951919;28;88512;-66
2022/06/23 12:40:26;;;;;;;7.85;4.80;;;23.40;64.70;;;;;;4973513;28;87770;-68
2022/06/23 12:43:03;;;;;;;12.57;5.00;;;23.40;64.60;;;;;;4974312;28;88731;-66
2022/06/23 12:45:44;;;;;;;7.45;4.25;;;23.40;64.80;;;;;;4956644;28;89895;-71
2022/06/23 12:48:56;;;;;;;8.27;4.60;;;23.40;64.30;;;;;;4972047;28;87937;-66
2022/06/23 12:51:35;;;;;;;7.53;5.05;;;23.40;64.50;;;;;;4974331;28;87701;-67
2022/06/23 12:54:28;;;;;;;9.23;4.20;;;23.40;65.00;;;;;;4965380;28;91267;-67
2022/06/23 12:57:10;;;;;;;6.20;4.93;;;23.40;64.70;;;;;;4972284;28;87077;-67
2022/06/23 12:59:41;;;;;;;7.50;5.00;;;23.40;64.60;;;;;;4973386;28;87309;-66
2022/06/23 13:02:35;;;;;;;7.40;4.68;;;23.40;64.80;;;;;;4956597;28;90240;-66
2022/06/23 13:05:22;;;;;;;7.32;5.50;;;23.40;65.20;;;;;;4974779;28;88798;-66
2022/06/23 13:08:25;;;;;;;6.05;5.05;;;23.40;65.00;;;;;;4971264;28;89945;-67
2022/06/23 13:11:06;;;;;;;6.78;4.97;;;23.40;65.10;;;;;;4976104;28;88019;-66
2022/06/23 13:13:43;;;;;;;7.15;5.25;;;23.40;65.00;;;;;;4939933;28;90477;-67
2022/06/23 13:16:28;;;;;;;9.45;5.40;;;23.40;65.30;;;;;;4974022;28;87814;-66
2022/06/23 13:19:33;;;;;;;10.27;4.72;;;23.40;64.90;;;;;;4972157;28;90530;-67
2022/06/23 13:22:07;;;;;;;7.03;4.50;;;23.40;65.10;;;;;;4938070;28;87571;-68
2022/06/23 13:24:36;;;;;;;8.13;4.65;;;23.40;64.90;;;;;;4957440;28;89443;-66
2022/06/23 13:27:23;;;;;;;8.18;5.18;;;23.40;64.70;;;;;;4973468;28;90803;-66
2022/06/23 13:29:54;;;;;;;7.20;4.00;;;23.40;64.90;;;;;;4956392;28;90762;-67
2022/06/23 13:32:48;;;;;;;8.15;3.88;;;23.40;64.30;;;;;;4969680;28;88476;-67
2022/06/23 13:35:27;;;;;;;7.13;4.55;;;23.40;64.20;;;;;;4969371;28;87387;-66
2022/06/23 13:38:12;;;;;;;5.65;3.50;;;23.40;64.00;;;;;;4972468;28;90629;-66
2022/06/23 13:40:45;;;;;;;6.30;3.78;;;23.50;64.10;;;;;;4969899;28;89574;-70
2022/06/23 13:43:26;;;;;;;4.50;3.60;;;23.40;63.90;;;;;;4962996;28;87718;-66
2022/06/23 13:46:06;;;;;;;5.57;3.78;;;23.40;64.20;;;;;;4971531;28;88412;-68
2022/06/23 13:48:54;;;;;;;8.40;3.60;;;23.40;64.20;;;;;;4971816;28;87688;-66
2022/06/23 13:51:55;;;;;;;7.13;3.90;;;23.40;64.60;;;;;;4952934;28;90659;-67
2022/06/23 13:54:34;;;;;;;9.15;4.10;;;23.40;64.70;;;;;;4925799;28;87124;-67
2022/06/23 13:57:12;;;;;;;6.55;3.80;;;23.50;65.10;;;;;;4973017;28;87501;-68
2022/06/23 13:59:59;;;;;;;9.88;4.30;;;23.40;65.20;;;;;;4971646;28;89467;-72
2022/06/23 14:02:47;;;;;;;5.80;3.80;;;23.50;65.30;;;;;;4969334;28;91263;-69
2022/06/23 14:05:19;;;;;;;8.57;3.63;;;23.50;65.60;;;;;;4969038;28;87405;-68
2022/06/23 14:08:08;;;;;;;14.25;3.70;;;23.50;65.50;;;;;;4961246;28;88890;-69
2022/06/23 14:11:11;;;;;;;15.85;6.03;;;23.50;65.70;;;;;;4970057;28;89696;-67
2022/06/23 14:14:01;;;;;;;75.25;20.83;;;23.50;66.90;;;;;;4926075;28;87889;-69